sensor_id;sensor_type;location;lat;lon;timestamp;P1;durP1;ratioP1;P2;durP2;ratioP2
72517;SDS011;60540;51.178;6.738;2022-08-19T00:00:13;10.00;;;6.50;;
72517;SDS011;60540;51.178;6.738;2022-08-19T00:03:00;10.40;;;5.93;;
72517;SDS011;60540;51.178;6.738;2022-08-19T00:05:26;10.20;;;5.93;;
72517;SDS011;60540;51.178;6.738;2022-08-19T00:07:51;10.80;;;6.00;;
72517;SDS011;60540;51.178;6.738;2022-08-19T00:10:17;8.13;;;5.90;;
72517;SDS011;60540;51.178;6.738;2022-08-19T00:12:43;9.77;;;6.07;;
72517;SDS011;60540;51.178;6.738;2022-08-19T00:15:10;8.73;;;5.88;;
72517;SDS011;60540;51.178;6.738;2022-08-19T00:17:38;9.98;;;5.95;;
72517;SDS011;60540;51.178;6.738;2022-08-19T00:20:08;7.95;;;5.70;;
72517;SDS011;60540;51.178;6.738;2022-08-19T00:22:36;9.95;;;6.55;;
72517;SDS011;60540;51.178;6.738;2022-08-19T00:25:02;9.02;;;5.95;;
72517;SDS011;60540;51.178;6.738;2022-08-19T00:27:29;9.40;;;6.60;;
72517;SDS011;60540;51.178;6.738;2022-08-19T00:29:55;9.77;;;6.95;;
72517;SDS011;60540;51.178;6.738;2022-08-19T00:32:20;10.15;;;6.20;;
72517;SDS011;60540;51.178;6.738;2022-08-19T00:34:46;9.68;;;6.07;;
72517;SDS011;60540;51.178;6.738;2022-08-19T00:37:12;10.25;;;6.07;;
72517;SDS011;60540;51.178;6.738;2022-08-19T00:39:37;8.30;;;6.30;;
72517;SDS011;60540;51.178;6.738;2022-08-19T00:42:03;11.23;;;6.43;;
72517;SDS011;60540;51.178;6.738;2022-08-19T00:44:29;8.85;;;6.57;;
72517;SDS011;60540;51.178;6.738;2022-08-19T00:46:56;10.50;;;7.03;;
72517;SDS011;60540;51.178;6.738;2022-08-19T00:49:37;9.80;;;7.03;;
72517;SDS011;60540;51.178;6.738;2022-08-19T00:52:07;10.50;;;7.28;;
72517;SDS011;60540;51.178;6.738;2022-08-19T00:54:35;9.98;;;7.32;;
72517;SDS011;60540;51.178;6.738;2022-08-19T00:57:02;8.27;;;6.32;;
72517;SDS011;60540;51.178;6.738;2022-08-19T00:59:29;10.65;;;6.93;;
72517;SDS011;60540;51.178;6.738;2022-08-19T01:01:55;8.68;;;6.38;;
72517;SDS011;60540;51.178;6.738;2022-08-19T01:04:21;11.35;;;8.07;;
72517;SDS011;60540;51.178;6.738;2022-08-19T01:06:46;11.25;;;7.45;;
72517;SDS011;60540;51.178;6.738;2022-08-19T01:09:12;8.23;;;6.32;;
72517;SDS011;60540;51.178;6.738;2022-08-19T01:11:39;10.63;;;6.38;;
72517;SDS011;60540;51.178;6.738;2022-08-19T01:14:07;8.60;;;6.15;;
72517;SDS011;60540;51.178;6.738;2022-08-19T01:16:33;9.32;;;6.63;;
72517;SDS011;60540;51.178;6.738;2022-08-19T01:18:59;10.80;;;7.82;;
72517;SDS011;60540;51.178;6.738;2022-08-19T01:23:59;11.70;;;8.20;;
72517;SDS011;60540;51.178;6.738;2022-08-19T01:26:25;12.98;;;8.68;;
72517;SDS011;60540;51.178;6.738;2022-08-19T01:28:52;12.13;;;8.25;;
72517;SDS011;60540;51.178;6.738;2022-08-19T01:31:21;14.07;;;9.18;;
72517;SDS011;60540;51.178;6.738;2022-08-19T01:33:49;13.50;;;9.75;;
72517;SDS011;60540;51.178;6.738;2022-08-19T01:36:22;12.40;;;8.82;;
72517;SDS011;60540;51.178;6.738;2022-08-19T01:38:51;12.35;;;8.10;;
72517;SDS011;60540;51.178;6.738;2022-08-19T01:41:17;13.18;;;9.05;;
72517;SDS011;60540;51.178;6.738;2022-08-19T01:43:43;12.20;;;9.00;;
72517;SDS011;60540;51.178;6.738;2022-08-19T01:46:09;13.85;;;8.90;;
72517;SDS011;60540;51.178;6.738;2022-08-19T01:48:35;12.95;;;8.88;;
72517;SDS011;60540;51.178;6.738;2022-08-19T01:51:05;12.30;;;9.32;;
72517;SDS011;60540;51.178;6.738;2022-08-19T01:53:31;14.02;;;9.20;;
72517;SDS011;60540;51.178;6.738;2022-08-19T01:55:57;11.10;;;8.90;;
72517;SDS011;60540;51.178;6.738;2022-08-19T01:58:24;13.15;;;8.52;;
72517;SDS011;60540;51.178;6.738;2022-08-19T02:00:55;13.10;;;9.05;;
72517;SDS011;60540;51.178;6.738;2022-08-19T02:05:48;13.82;;;9.23;;
72517;SDS011;60540;51.178;6.738;2022-08-19T02:08:22;15.07;;;10.32;;
72517;SDS011;60540;51.178;6.738;2022-08-19T02:10:48;13.45;;;10.20;;
72517;SDS011;60540;51.178;6.738;2022-08-19T02:13:14;13.52;;;9.85;;
72517;SDS011;60540;51.178;6.738;2022-08-19T02:15:42;16.17;;;9.73;;
72517;SDS011;60540;51.178;6.738;2022-08-19T02:18:07;14.13;;;10.00;;
72517;SDS011;60540;51.178;6.738;2022-08-19T02:20:33;12.63;;;8.48;;
72517;SDS011;60540;51.178;6.738;2022-08-19T02:22:59;11.77;;;8.07;;
72517;SDS011;60540;51.178;6.738;2022-08-19T02:25:26;11.52;;;8.05;;
72517;SDS011;60540;51.178;6.738;2022-08-19T02:27:52;13.23;;;8.27;;
72517;SDS011;60540;51.178;6.738;2022-08-19T02:30:19;12.93;;;9.30;;
72517;SDS011;60540;51.178;6.738;2022-08-19T02:32:45;12.18;;;8.13;;
72517;SDS011;60540;51.178;6.738;2022-08-19T02:35:12;12.57;;;9.20;;
72517;SDS011;60540;51.178;6.738;2022-08-19T02:37:39;17.80;;;9.38;;
72517;SDS011;60540;51.178;6.738;2022-08-19T02:40:24;14.65;;;10.18;;
72517;SDS011;60540;51.178;6.738;2022-08-19T02:42:51;16.77;;;11.07;;
72517;SDS011;60540;51.178;6.738;2022-08-19T02:45:16;15.85;;;10.95;;
72517;SDS011;60540;51.178;6.738;2022-08-19T02:47:42;18.17;;;12.23;;
72517;SDS011;60540;51.178;6.738;2022-08-19T02:50:08;17.58;;;12.27;;
72517;SDS011;60540;51.178;6.738;2022-08-19T02:52:34;17.35;;;11.18;;
72517;SDS011;60540;51.178;6.738;2022-08-19T02:55:00;16.20;;;11.73;;
72517;SDS011;60540;51.178;6.738;2022-08-19T02:57:26;15.80;;;11.13;;
72517;SDS011;60540;51.178;6.738;2022-08-19T02:59:52;16.48;;;12.18;;
72517;SDS011;60540;51.178;6.738;2022-08-19T03:02:18;15.68;;;11.05;;
72517;SDS011;60540;51.178;6.738;2022-08-19T03:04:44;16.73;;;12.13;;
72517;SDS011;60540;51.178;6.738;2022-08-19T03:07:12;17.80;;;11.02;;
72517;SDS011;60540;51.178;6.738;2022-08-19T03:09:38;16.25;;;10.93;;
72517;SDS011;60540;51.178;6.738;2022-08-19T03:12:04;17.20;;;11.30;;
72517;SDS011;60540;51.178;6.738;2022-08-19T03:14:31;18.25;;;12.57;;
72517;SDS011;60540;51.178;6.738;2022-08-19T03:16:57;18.50;;;13.23;;
72517;SDS011;60540;51.178;6.738;2022-08-19T03:19:22;18.05;;;12.57;;
72517;SDS011;60540;51.178;6.738;2022-08-19T03:21:48;18.33;;;11.35;;
72517;SDS011;60540;51.178;6.738;2022-08-19T03:24:14;15.52;;;10.68;;
72517;SDS011;60540;51.178;6.738;2022-08-19T03:26:44;16.42;;;12.18;;
72517;SDS011;60540;51.178;6.738;2022-08-19T03:29:11;20.92;;;13.40;;
72517;SDS011;60540;51.178;6.738;2022-08-19T03:31:38;18.65;;;12.80;;
72517;SDS011;60540;51.178;6.738;2022-08-19T03:34:04;21.70;;;14.00;;
72517;SDS011;60540;51.178;6.738;2022-08-19T03:36:30;18.10;;;13.60;;
72517;SDS011;60540;51.178;6.738;2022-08-19T03:38:56;21.42;;;14.43;;
72517;SDS011;60540;51.178;6.738;2022-08-19T03:41:25;19.83;;;13.95;;
72517;SDS011;60540;51.178;6.738;2022-08-19T03:43:55;15.93;;;11.88;;
72517;SDS011;60540;51.178;6.738;2022-08-19T03:46:23;18.02;;;12.55;;
72517;SDS011;60540;51.178;6.738;2022-08-19T03:48:52;18.30;;;12.38;;
72517;SDS011;60540;51.178;6.738;2022-08-19T03:51:20;21.20;;;13.65;;
72517;SDS011;60540;51.178;6.738;2022-08-19T03:53:47;21.15;;;14.40;;
72517;SDS011;60540;51.178;6.738;2022-08-19T03:56:13;21.50;;;14.15;;
72517;SDS011;60540;51.178;6.738;2022-08-19T03:58:39;23.75;;;14.80;;
72517;SDS011;60540;51.178;6.738;2022-08-19T04:01:09;22.48;;;15.60;;
72517;SDS011;60540;51.178;6.738;2022-08-19T04:03:36;25.02;;;16.17;;
72517;SDS011;60540;51.178;6.738;2022-08-19T04:08:57;25.77;;;16.13;;
72517;SDS011;60540;51.178;6.738;2022-08-19T04:11:25;22.83;;;15.80;;
72517;SDS011;60540;51.178;6.738;2022-08-19T04:13:52;23.75;;;15.95;;
72517;SDS011;60540;51.178;6.738;2022-08-19T04:16:19;27.95;;;17.92;;
72517;SDS011;60540;51.178;6.738;2022-08-19T04:18:49;23.95;;;16.50;;
72517;SDS011;60540;51.178;6.738;2022-08-19T04:21:19;28.38;;;18.10;;
72517;SDS011;60540;51.178;6.738;2022-08-19T04:23:47;27.85;;;18.73;;
72517;SDS011;60540;51.178;6.738;2022-08-19T04:26:23;26.85;;;17.13;;
72517;SDS011;60540;51.178;6.738;2022-08-19T04:28:50;31.38;;;19.08;;
72517;SDS011;60540;51.178;6.738;2022-08-19T04:31:21;31.23;;;20.65;;
72517;SDS011;60540;51.178;6.738;2022-08-19T04:33:52;29.25;;;19.13;;
72517;SDS011;60540;51.178;6.738;2022-08-19T04:36:23;27.88;;;18.17;;
72517;SDS011;60540;51.178;6.738;2022-08-19T04:38:53;23.17;;;14.70;;
72517;SDS011;60540;51.178;6.738;2022-08-19T04:41:23;28.38;;;17.85;;
72517;SDS011;60540;51.178;6.738;2022-08-19T04:44:07;30.17;;;19.05;;
72517;SDS011;60540;51.178;6.738;2022-08-19T04:46:33;30.15;;;19.20;;
72517;SDS011;60540;51.178;6.738;2022-08-19T04:49:00;26.17;;;16.85;;
72517;SDS011;60540;51.178;6.738;2022-08-19T04:51:26;29.55;;;19.88;;
72517;SDS011;60540;51.178;6.738;2022-08-19T04:53:52;24.48;;;15.98;;
72517;SDS011;60540;51.178;6.738;2022-08-19T04:56:18;24.60;;;15.65;;
72517;SDS011;60540;51.178;6.738;2022-08-19T04:58:46;23.08;;;15.27;;
72517;SDS011;60540;51.178;6.738;2022-08-19T05:01:17;22.02;;;14.68;;
72517;SDS011;60540;51.178;6.738;2022-08-19T05:03:45;23.30;;;15.25;;
72517;SDS011;60540;51.178;6.738;2022-08-19T05:06:12;24.75;;;15.57;;
72517;SDS011;60540;51.178;6.738;2022-08-19T05:08:39;26.60;;;15.73;;
72517;SDS011;60540;51.178;6.738;2022-08-19T05:11:10;26.60;;;15.55;;
72517;SDS011;60540;51.178;6.738;2022-08-19T05:13:37;23.90;;;16.20;;
72517;SDS011;60540;51.178;6.738;2022-08-19T05:16:03;26.55;;;16.95;;
72517;SDS011;60540;51.178;6.738;2022-08-19T05:18:29;30.00;;;18.20;;
72517;SDS011;60540;51.178;6.738;2022-08-19T05:21:14;25.02;;;16.90;;
72517;SDS011;60540;51.178;6.738;2022-08-19T05:23:59;28.42;;;17.73;;
72517;SDS011;60540;51.178;6.738;2022-08-19T05:26:25;27.45;;;17.52;;
72517;SDS011;60540;51.178;6.738;2022-08-19T05:28:51;26.55;;;16.88;;
72517;SDS011;60540;51.178;6.738;2022-08-19T05:31:18;26.55;;;17.00;;
72517;SDS011;60540;51.178;6.738;2022-08-19T05:33:44;26.65;;;16.90;;
72517;SDS011;60540;51.178;6.738;2022-08-19T05:36:10;34.80;;;18.27;;
72517;SDS011;60540;51.178;6.738;2022-08-19T05:38:36;32.10;;;19.42;;
72517;SDS011;60540;51.178;6.738;2022-08-19T05:41:08;34.83;;;20.75;;
72517;SDS011;60540;51.178;6.738;2022-08-19T05:43:35;36.50;;;22.13;;
72517;SDS011;60540;51.178;6.738;2022-08-19T05:46:01;36.20;;;22.85;;
72517;SDS011;60540;51.178;6.738;2022-08-19T05:48:26;38.00;;;23.23;;
72517;SDS011;60540;51.178;6.738;2022-08-19T05:50:52;42.50;;;24.08;;
72517;SDS011;60540;51.178;6.738;2022-08-19T05:53:18;38.10;;;23.48;;
72517;SDS011;60540;51.178;6.738;2022-08-19T05:55:44;40.50;;;25.10;;
72517;SDS011;60540;51.178;6.738;2022-08-19T05:58:09;35.83;;;21.90;;
72517;SDS011;60540;51.178;6.738;2022-08-19T06:00:35;37.33;;;22.52;;
72517;SDS011;60540;51.178;6.738;2022-08-19T06:03:02;38.28;;;22.70;;
72517;SDS011;60540;51.178;6.738;2022-08-19T06:05:31;37.78;;;23.48;;
72517;SDS011;60540;51.178;6.738;2022-08-19T06:07:57;38.50;;;24.38;;
72517;SDS011;60540;51.178;6.738;2022-08-19T06:10:24;37.38;;;22.23;;
72517;SDS011;60540;51.178;6.738;2022-08-19T06:12:51;36.50;;;21.95;;
72517;SDS011;60540;51.178;6.738;2022-08-19T06:15:17;40.78;;;24.73;;
72517;SDS011;60540;51.178;6.738;2022-08-19T06:17:42;40.67;;;23.90;;
72517;SDS011;60540;51.178;6.738;2022-08-19T06:20:10;40.92;;;23.05;;
72517;SDS011;60540;51.178;6.738;2022-08-19T06:22:39;41.25;;;23.33;;
72517;SDS011;60540;51.178;6.738;2022-08-19T06:25:05;40.50;;;23.15;;
72517;SDS011;60540;51.178;6.738;2022-08-19T06:27:32;37.75;;;22.55;;
72517;SDS011;60540;51.178;6.738;2022-08-19T06:29:58;36.53;;;22.42;;
72517;SDS011;60540;51.178;6.738;2022-08-19T06:32:24;39.90;;;23.55;;
72517;SDS011;60540;51.178;6.738;2022-08-19T06:34:49;37.65;;;23.10;;
72517;SDS011;60540;51.178;6.738;2022-08-19T06:37:15;42.03;;;25.58;;
72517;SDS011;60540;51.178;6.738;2022-08-19T06:39:41;37.83;;;22.38;;
72517;SDS011;60540;51.178;6.738;2022-08-19T06:42:08;38.83;;;22.65;;
72517;SDS011;60540;51.178;6.738;2022-08-19T06:44:37;34.90;;;22.35;;
72517;SDS011;60540;51.178;6.738;2022-08-19T06:47:06;40.65;;;22.75;;
72517;SDS011;60540;51.178;6.738;2022-08-19T06:49:33;39.65;;;22.38;;
72517;SDS011;60540;51.178;6.738;2022-08-19T06:51:59;41.50;;;23.63;;
72517;SDS011;60540;51.178;6.738;2022-08-19T06:54:25;37.08;;;20.73;;
72517;SDS011;60540;51.178;6.738;2022-08-19T06:56:51;36.45;;;22.48;;
72517;SDS011;60540;51.178;6.738;2022-08-19T06:59:18;36.40;;;21.23;;
72517;SDS011;60540;51.178;6.738;2022-08-19T07:01:50;37.78;;;23.80;;
72517;SDS011;60540;51.178;6.738;2022-08-19T07:04:18;38.78;;;22.52;;
72517;SDS011;60540;51.178;6.738;2022-08-19T07:06:44;38.00;;;21.67;;
72517;SDS011;60540;51.178;6.738;2022-08-19T07:09:12;40.10;;;22.25;;
72517;SDS011;60540;51.178;6.738;2022-08-19T07:11:43;34.50;;;20.15;;
72517;SDS011;60540;51.178;6.738;2022-08-19T07:14:13;37.95;;;22.20;;
72517;SDS011;60540;51.178;6.738;2022-08-19T07:16:39;37.88;;;23.10;;
72517;SDS011;60540;51.178;6.738;2022-08-19T07:19:04;37.35;;;22.80;;
72517;SDS011;60540;51.178;6.738;2022-08-19T07:21:30;34.50;;;20.35;;
72517;SDS011;60540;51.178;6.738;2022-08-19T07:23:56;34.40;;;20.42;;
72517;SDS011;60540;51.178;6.738;2022-08-19T07:26:25;33.15;;;18.63;;
72517;SDS011;60540;51.178;6.738;2022-08-19T07:28:53;36.00;;;20.60;;
72517;SDS011;60540;51.178;6.738;2022-08-19T07:31:20;33.15;;;18.92;;
72517;SDS011;60540;51.178;6.738;2022-08-19T07:33:48;30.70;;;19.02;;
72517;SDS011;60540;51.178;6.738;2022-08-19T07:36:17;32.47;;;19.80;;
72517;SDS011;60540;51.178;6.738;2022-08-19T07:38:44;30.85;;;17.50;;
72517;SDS011;60540;51.178;6.738;2022-08-19T07:41:13;32.13;;;17.88;;
72517;SDS011;60540;51.178;6.738;2022-08-19T07:43:40;31.42;;;17.92;;
72517;SDS011;60540;51.178;6.738;2022-08-19T07:46:08;31.65;;;17.27;;
72517;SDS011;60540;51.178;6.738;2022-08-19T07:48:34;32.17;;;17.25;;
72517;SDS011;60540;51.178;6.738;2022-08-19T07:51:02;32.42;;;17.30;;
72517;SDS011;60540;51.178;6.738;2022-08-19T07:53:29;33.30;;;18.00;;
72517;SDS011;60540;51.178;6.738;2022-08-19T07:55:56;32.35;;;19.70;;
72517;SDS011;60540;51.178;6.738;2022-08-19T07:58:29;30.90;;;18.63;;
72517;SDS011;60540;51.178;6.738;2022-08-19T08:00:57;37.45;;;20.25;;
72517;SDS011;60540;51.178;6.738;2022-08-19T08:03:23;38.45;;;21.67;;
72517;SDS011;60540;51.178;6.738;2022-08-19T08:06:28;37.72;;;19.85;;
72517;SDS011;60540;51.178;6.738;2022-08-19T08:09:13;36.55;;;20.08;;
72517;SDS011;60540;51.178;6.738;2022-08-19T08:11:50;41.70;;;20.73;;
72517;SDS011;60540;51.178;6.738;2022-08-19T08:14:25;40.22;;;21.90;;
72517;SDS011;60540;51.178;6.738;2022-08-19T08:16:53;49.38;;;25.08;;
72517;SDS011;60540;51.178;6.738;2022-08-19T08:19:19;45.22;;;24.08;;
72517;SDS011;60540;51.178;6.738;2022-08-19T08:21:46;43.78;;;23.17;;
72517;SDS011;60540;51.178;6.738;2022-08-19T08:24:13;38.78;;;22.58;;
72517;SDS011;60540;51.178;6.738;2022-08-19T08:26:39;44.78;;;23.75;;
72517;SDS011;60540;51.178;6.738;2022-08-19T08:29:05;42.20;;;23.55;;
72517;SDS011;60540;51.178;6.738;2022-08-19T08:31:33;44.90;;;24.13;;
72517;SDS011;60540;51.178;6.738;2022-08-19T08:33:59;53.78;;;25.02;;
72517;SDS011;60540;51.178;6.738;2022-08-19T08:36:24;53.47;;;28.10;;
72517;SDS011;60540;51.178;6.738;2022-08-19T08:38:50;43.58;;;22.35;;
72517;SDS011;60540;51.178;6.738;2022-08-19T08:41:20;41.92;;;22.95;;
72517;SDS011;60540;51.178;6.738;2022-08-19T08:43:53;40.42;;;22.85;;
72517;SDS011;60540;51.178;6.738;2022-08-19T08:51:44;40.83;;;22.25;;
72517;SDS011;60540;51.178;6.738;2022-08-19T08:54:13;35.83;;;19.95;;
72517;SDS011;60540;51.178;6.738;2022-08-19T08:56:41;34.08;;;20.52;;
72517;SDS011;60540;51.178;6.738;2022-08-19T08:59:10;34.30;;;19.83;;
72517;SDS011;60540;51.178;6.738;2022-08-19T09:01:46;32.22;;;18.33;;
72517;SDS011;60540;51.178;6.738;2022-08-19T09:04:11;31.83;;;19.10;;
72517;SDS011;60540;51.178;6.738;2022-08-19T09:09:27;32.67;;;17.95;;
72517;SDS011;60540;51.178;6.738;2022-08-19T09:12:03;33.25;;;19.45;;
72517;SDS011;60540;51.178;6.738;2022-08-19T09:14:54;31.55;;;17.40;;
72517;SDS011;60540;51.178;6.738;2022-08-19T09:17:23;30.65;;;17.55;;
72517;SDS011;60540;51.178;6.738;2022-08-19T09:22:21;26.55;;;15.75;;
72517;SDS011;60540;51.178;6.738;2022-08-19T09:24:48;25.45;;;14.77;;
72517;SDS011;60540;51.178;6.738;2022-08-19T09:27:15;26.83;;;15.77;;
72517;SDS011;60540;51.178;6.738;2022-08-19T09:29:41;22.73;;;13.15;;
72517;SDS011;60540;51.178;6.738;2022-08-19T09:32:07;20.27;;;13.30;;
72517;SDS011;60540;51.178;6.738;2022-08-19T09:34:32;21.73;;;13.60;;
72517;SDS011;60540;51.178;6.738;2022-08-19T09:36:58;20.85;;;12.77;;
72517;SDS011;60540;51.178;6.738;2022-08-19T09:39:25;20.08;;;11.45;;
72517;SDS011;60540;51.178;6.738;2022-08-19T09:41:52;17.95;;;11.55;;
72517;SDS011;60540;51.178;6.738;2022-08-19T09:44:18;17.27;;;10.95;;
72517;SDS011;60540;51.178;6.738;2022-08-19T09:46:45;18.05;;;10.70;;
72517;SDS011;60540;51.178;6.738;2022-08-19T09:49:12;15.88;;;10.05;;
72517;SDS011;60540;51.178;6.738;2022-08-19T09:51:37;18.67;;;12.00;;
72517;SDS011;60540;51.178;6.738;2022-08-19T09:54:03;18.02;;;10.63;;
72517;SDS011;60540;51.178;6.738;2022-08-19T09:56:30;13.30;;;8.75;;
72517;SDS011;60540;51.178;6.738;2022-08-19T09:58:59;12.32;;;8.85;;
72517;SDS011;60540;51.178;6.738;2022-08-19T10:01:26;12.13;;;8.25;;
72517;SDS011;60540;51.178;6.738;2022-08-19T10:03:54;14.85;;;10.00;;
72517;SDS011;60540;51.178;6.738;2022-08-19T10:06:21;17.05;;;9.90;;
72517;SDS011;60540;51.178;6.738;2022-08-19T10:08:49;16.58;;;10.88;;
72517;SDS011;60540;51.178;6.738;2022-08-19T10:11:17;15.70;;;10.13;;
72517;SDS011;60540;51.178;6.738;2022-08-19T10:13:44;17.70;;;11.50;;
72517;SDS011;60540;51.178;6.738;2022-08-19T10:16:11;14.93;;;10.38;;
72517;SDS011;60540;51.178;6.738;2022-08-19T10:18:41;15.13;;;9.38;;
72517;SDS011;60540;51.178;6.738;2022-08-19T10:21:10;15.00;;;10.07;;
72517;SDS011;60540;51.178;6.738;2022-08-19T10:23:37;14.57;;;9.60;;
72517;SDS011;60540;51.178;6.738;2022-08-19T10:26:05;15.30;;;10.18;;
72517;SDS011;60540;51.178;6.738;2022-08-19T10:28:32;14.90;;;9.23;;
72517;SDS011;60540;51.178;6.738;2022-08-19T10:31:02;12.57;;;8.77;;
72517;SDS011;60540;51.178;6.738;2022-08-19T10:33:30;13.90;;;8.63;;
72517;SDS011;60540;51.178;6.738;2022-08-19T10:36:00;13.07;;;7.68;;
72517;SDS011;60540;51.178;6.738;2022-08-19T10:38:26;12.00;;;8.02;;
72517;SDS011;60540;51.178;6.738;2022-08-19T10:40:54;11.80;;;7.47;;
72517;SDS011;60540;51.178;6.738;2022-08-19T10:43:20;15.93;;;9.18;;
72517;SDS011;60540;51.178;6.738;2022-08-19T10:45:51;14.73;;;9.82;;
72517;SDS011;60540;51.178;6.738;2022-08-19T10:48:19;16.63;;;10.18;;
72517;SDS011;60540;51.178;6.738;2022-08-19T10:50:44;15.18;;;10.88;;
72517;SDS011;60540;51.178;6.738;2022-08-19T10:55:54;12.98;;;8.27;;
72517;SDS011;60540;51.178;6.738;2022-08-19T10:58:38;11.65;;;8.20;;
72517;SDS011;60540;51.178;6.738;2022-08-19T11:01:04;13.85;;;9.30;;
72517;SDS011;60540;51.178;6.738;2022-08-19T11:03:29;18.23;;;10.68;;
72517;SDS011;60540;51.178;6.738;2022-08-19T11:06:02;16.67;;;10.60;;
72517;SDS011;60540;51.178;6.738;2022-08-19T11:08:30;12.00;;;8.60;;
72517;SDS011;60540;51.178;6.738;2022-08-19T11:10:58;13.68;;;9.02;;
72517;SDS011;60540;51.178;6.738;2022-08-19T11:13:29;12.02;;;7.70;;
72517;SDS011;60540;51.178;6.738;2022-08-19T11:16:00;12.63;;;8.57;;
72517;SDS011;60540;51.178;6.738;2022-08-19T11:18:27;11.73;;;8.30;;
72517;SDS011;60540;51.178;6.738;2022-08-19T11:20:53;10.88;;;7.22;;
72517;SDS011;60540;51.178;6.738;2022-08-19T11:23:18;12.68;;;8.43;;
72517;SDS011;60540;51.178;6.738;2022-08-19T11:25:44;9.73;;;6.47;;
72517;SDS011;60540;51.178;6.738;2022-08-19T11:28:10;11.35;;;7.93;;
72517;SDS011;60540;51.178;6.738;2022-08-19T11:33:02;10.82;;;7.00;;
72517;SDS011;60540;51.178;6.738;2022-08-19T11:35:28;10.85;;;6.63;;
72517;SDS011;60540;51.178;6.738;2022-08-19T11:37:53;12.40;;;6.95;;
72517;SDS011;60540;51.178;6.738;2022-08-19T11:40:20;10.93;;;6.68;;
72517;SDS011;60540;51.178;6.738;2022-08-19T11:42:46;9.60;;;6.35;;
72517;SDS011;60540;51.178;6.738;2022-08-19T11:45:20;8.50;;;5.45;;
72517;SDS011;60540;51.178;6.738;2022-08-19T11:47:46;8.77;;;5.28;;
72517;SDS011;60540;51.178;6.738;2022-08-19T11:50:12;8.25;;;5.60;;
72517;SDS011;60540;51.178;6.738;2022-08-19T11:52:39;8.77;;;5.55;;
72517;SDS011;60540;51.178;6.738;2022-08-19T11:55:05;13.85;;;6.95;;
72517;SDS011;60540;51.178;6.738;2022-08-19T11:57:31;10.88;;;6.97;;
72517;SDS011;60540;51.178;6.738;2022-08-19T11:59:56;12.85;;;7.03;;
72517;SDS011;60540;51.178;6.738;2022-08-19T12:02:22;9.95;;;6.47;;
72517;SDS011;60540;51.178;6.738;2022-08-19T12:04:48;9.68;;;5.95;;
72517;SDS011;60540;51.178;6.738;2022-08-19T12:07:14;9.93;;;6.00;;
72517;SDS011;60540;51.178;6.738;2022-08-19T12:09:40;9.90;;;5.97;;
72517;SDS011;60540;51.178;6.738;2022-08-19T12:12:05;9.45;;;6.13;;
72517;SDS011;60540;51.178;6.738;2022-08-19T12:14:31;11.13;;;5.40;;
72517;SDS011;60540;51.178;6.738;2022-08-19T12:16:57;10.80;;;6.63;;
72517;SDS011;60540;51.178;6.738;2022-08-19T12:21:49;10.57;;;6.13;;
72517;SDS011;60540;51.178;6.738;2022-08-19T12:24:15;9.13;;;6.15;;
72517;SDS011;60540;51.178;6.738;2022-08-19T12:26:45;10.98;;;6.65;;
72517;SDS011;60540;51.178;6.738;2022-08-19T12:29:11;9.52;;;6.28;;
72517;SDS011;60540;51.178;6.738;2022-08-19T12:31:36;8.70;;;5.40;;
72517;SDS011;60540;51.178;6.738;2022-08-19T12:34:02;8.95;;;6.13;;
72517;SDS011;60540;51.178;6.738;2022-08-19T12:36:27;10.68;;;6.40;;
72517;SDS011;60540;51.178;6.738;2022-08-19T12:38:53;9.10;;;5.22;;
72517;SDS011;60540;51.178;6.738;2022-08-19T12:41:19;8.18;;;4.68;;
72517;SDS011;60540;51.178;6.738;2022-08-19T12:43:46;9.48;;;4.75;;
72517;SDS011;60540;51.178;6.738;2022-08-19T12:46:13;6.28;;;4.07;;
72517;SDS011;60540;51.178;6.738;2022-08-19T12:48:39;5.88;;;3.80;;
72517;SDS011;60540;51.178;6.738;2022-08-19T12:51:12;6.25;;;3.88;;
72517;SDS011;60540;51.178;6.738;2022-08-19T12:53:40;7.40;;;4.25;;
72517;SDS011;60540;51.178;6.738;2022-08-19T12:56:07;7.60;;;4.68;;
72517;SDS011;60540;51.178;6.738;2022-08-19T12:58:33;7.53;;;4.65;;
72517;SDS011;60540;51.178;6.738;2022-08-19T13:03:30;7.35;;;4.00;;
72517;SDS011;60540;51.178;6.738;2022-08-19T13:08:22;6.60;;;4.15;;
72517;SDS011;60540;51.178;6.738;2022-08-19T13:10:47;5.32;;;3.70;;
72517;SDS011;60540;51.178;6.738;2022-08-19T13:15:40;6.07;;;4.00;;
72517;SDS011;60540;51.178;6.738;2022-08-19T13:18:07;7.78;;;4.30;;
72517;SDS011;60540;51.178;6.738;2022-08-19T13:20:34;7.53;;;4.38;;
72517;SDS011;60540;51.178;6.738;2022-08-19T13:23:00;6.35;;;4.32;;
72517;SDS011;60540;51.178;6.738;2022-08-19T13:27:51;8.57;;;4.20;;
72517;SDS011;60540;51.178;6.738;2022-08-19T13:30:18;8.60;;;3.63;;
72517;SDS011;60540;51.178;6.738;2022-08-19T13:33:03;8.07;;;4.40;;
72517;SDS011;60540;51.178;6.738;2022-08-19T13:35:36;5.38;;;3.60;;
72517;SDS011;60540;51.178;6.738;2022-08-19T13:38:08;5.30;;;3.30;;
72517;SDS011;60540;51.178;6.738;2022-08-19T13:40:35;5.90;;;3.53;;
72517;SDS011;60540;51.178;6.738;2022-08-19T13:43:02;6.45;;;4.10;;
72517;SDS011;60540;51.178;6.738;2022-08-19T13:45:30;5.75;;;3.45;;
72517;SDS011;60540;51.178;6.738;2022-08-19T13:48:00;8.07;;;4.20;;
72517;SDS011;60540;51.178;6.738;2022-08-19T13:50:31;7.38;;;3.60;;
72517;SDS011;60540;51.178;6.738;2022-08-19T13:52:58;6.70;;;4.55;;
72517;SDS011;60540;51.178;6.738;2022-08-19T13:55:23;5.97;;;3.88;;
72517;SDS011;60540;51.178;6.738;2022-08-19T14:00:17;6.10;;;3.22;;
72517;SDS011;60540;51.178;6.738;2022-08-19T14:02:44;6.97;;;4.00;;
72517;SDS011;60540;51.178;6.738;2022-08-19T14:05:12;6.25;;;3.35;;
72517;SDS011;60540;51.178;6.738;2022-08-19T14:07:39;5.28;;;3.67;;
72517;SDS011;60540;51.178;6.738;2022-08-19T14:10:06;6.00;;;3.45;;
72517;SDS011;60540;51.178;6.738;2022-08-19T14:12:33;5.25;;;3.45;;
72517;SDS011;60540;51.178;6.738;2022-08-19T14:14:59;6.82;;;3.55;;
72517;SDS011;60540;51.178;6.738;2022-08-19T14:17:25;5.28;;;2.80;;
72517;SDS011;60540;51.178;6.738;2022-08-19T14:20:00;6.55;;;3.25;;
72517;SDS011;60540;51.178;6.738;2022-08-19T14:22:30;5.47;;;2.88;;
72517;SDS011;60540;51.178;6.738;2022-08-19T14:24:56;4.68;;;2.75;;
72517;SDS011;60540;51.178;6.738;2022-08-19T14:27:22;4.88;;;2.78;;
72517;SDS011;60540;51.178;6.738;2022-08-19T14:29:49;6.13;;;2.60;;
72517;SDS011;60540;51.178;6.738;2022-08-19T14:32:14;5.95;;;2.60;;
72517;SDS011;60540;51.178;6.738;2022-08-19T14:34:40;5.70;;;2.88;;
72517;SDS011;60540;51.178;6.738;2022-08-19T14:37:06;5.53;;;2.70;;
72517;SDS011;60540;51.178;6.738;2022-08-19T14:39:31;4.60;;;2.45;;
72517;SDS011;60540;51.178;6.738;2022-08-19T14:41:57;5.88;;;2.88;;
72517;SDS011;60540;51.178;6.738;2022-08-19T14:44:24;5.70;;;2.47;;
72517;SDS011;60540;51.178;6.738;2022-08-19T14:46:50;5.75;;;2.35;;
72517;SDS011;60540;51.178;6.738;2022-08-19T14:49:15;4.53;;;2.30;;
72517;SDS011;60540;51.178;6.738;2022-08-19T14:51:41;5.90;;;2.28;;
72517;SDS011;60540;51.178;6.738;2022-08-19T14:54:07;6.32;;;2.67;;
72517;SDS011;60540;51.178;6.738;2022-08-19T14:56:32;5.15;;;2.70;;
72517;SDS011;60540;51.178;6.738;2022-08-19T14:58:58;4.63;;;2.70;;
72517;SDS011;60540;51.178;6.738;2022-08-19T15:01:26;4.60;;;2.20;;
72517;SDS011;60540;51.178;6.738;2022-08-19T15:03:52;6.35;;;2.55;;
72517;SDS011;60540;51.178;6.738;2022-08-19T15:06:18;5.63;;;2.42;;
72517;SDS011;60540;51.178;6.738;2022-08-19T15:08:44;3.72;;;2.22;;
72517;SDS011;60540;51.178;6.738;2022-08-19T15:11:11;6.05;;;2.67;;